Time;durP1;ratioP1;P1;durP2;ratioP2;P2;SDS_P1;SDS_P2;PMS_P1;PMS_P2;Temp;Humidity;BMP_temperature;BMP_pressure;BME280_temperature;BME280_humidity;BME280_pressure;Samples;Min_cycle;Max_cycle;Signal;HPM_P1;HPM_P2
2021/10/08 00:01:31;;;;;;;;;2.00;2.00;;;;;21.96;43.17;102266.81;5057340;28;45589;-53
2021/10/08 00:03:57;;;;;;;;;5.75;4.50;;;;;21.97;43.17;102265.06;5057339;28;45362;-53
2021/10/08 00:06:23;;;;;;;;;3.50;3.50;;;;;21.98;43.01;102267.63;5057428;28;45555;-55
2021/10/08 00:08:49;;;;;;;;;5.00;4.25;;;;;21.97;43.18;102265.06;5057016;28;46445;-53
2021/10/08 00:11:15;;;;;;;;;7.00;4.00;;;;;21.98;42.93;102259.69;5056937;28;45252;-52
2021/10/08 00:13:41;;;;;;;;;5.50;4.00;;;;;21.97;43.23;102262.41;5057207;28;45461;-54
2021/10/08 00:16:07;;;;;;;;;6.50;4.25;;;;;21.97;43.13;102267.69;5057231;28;45609;-55
2021/10/08 00:18:34;;;;;;;;;2.75;2.00;;;;;21.96;43.24;102264.19;5057153;28;45435;-55
2021/10/08 00:21:00;;;;;;;;;4.00;4.00;;;;;21.96;43.10;102261.53;5057238;28;45358;-52
2021/10/08 00:23:25;;;;;;;;;3.00;3.00;;;;;21.96;43.32;102263.34;5057096;28;45312;-55
2021/10/08 00:25:51;;;;;;;;;6.00;4.00;;;;;21.95;43.04;102261.59;5057182;28;45315;-55
2021/10/08 00:28:16;;;;;;;;;3.00;3.00;;;;;21.96;43.38;102268.59;5056727;28;45391;-55
2021/10/08 00:30:42;;;;;;;;;3.00;3.00;;;;;21.94;43.42;102263.38;5056810;28;45341;-52
2021/10/08 00:33:07;;;;;;;;;3.00;3.00;;;;;21.95;43.35;102270.38;5056550;28;45232;-54
2021/10/08 00:35:33;;;;;;;;;4.25;4.00;;;;;21.96;43.37;102271.25;5057436;28;45526;-54
2021/10/08 00:37:58;;;;;;;;;3.50;3.50;;;;;21.93;43.21;102270.44;5056626;28;45364;-54
2021/10/08 00:40:24;;;;;;;;;3.00;3.00;;;;;21.95;43.55;102266.88;5056556;28;45364;-53
2021/10/08 00:42:50;;;;;;;;;4.50;4.25;;;;;21.93;43.28;102267.81;5056646;28;46267;-55
2021/10/08 00:45:16;;;;;;;;;5.25;5.00;;;;;21.94;43.19;102268.66;5056743;28;45562;-55
2021/10/08 00:47:41;;;;;;;;;4.00;4.00;;;;;21.95;43.51;102270.38;5056480;28;46676;-53
2021/10/08 00:50:09;;;;;;;;;3.50;3.50;;;;;21.94;43.22;102273.94;5072047;28;45665;-54
2021/10/08 00:52:34;;;;;;;;;4.00;3.00;;;;;21.95;43.31;102273.00;5056925;28;45398;-54
2021/10/08 00:55:00;;;;;;;;;3.00;3.00;;;;;21.95;43.25;102277.44;5056775;28;45377;-55
2021/10/08 00:57:28;;;;;;;;;3.00;3.00;;;;;21.93;43.66;102280.16;5056347;28;46570;-57
2021/10/08 00:59:53;;;;;;;;;5.25;4.25;;;;;21.92;43.19;102274.00;5056255;28;45201;-54
2021/10/08 01:02:20;;;;;;;;;5.25;5.00;;;;;21.92;43.28;102276.63;5056318;28;45173;-53
2021/10/08 01:04:48;;;;;;;;;5.00;4.75;;;;;21.92;43.48;102273.16;5056591;28;45703;-54
2021/10/08 01:07:13;;;;;;;;;3.75;3.75;;;;;21.92;43.52;102278.44;5056200;28;45548;-53
2021/10/08 01:09:39;;;;;;;;;3.00;3.00;;;;;21.92;43.30;102274.00;5056230;28;45317;-53
2021/10/08 01:12:06;;;;;;;;;3.75;3.00;;;;;21.91;43.41;102280.19;5056691;28;45273;-52
2021/10/08 01:14:31;;;;;;;;;3.75;3.75;;;;;21.91;43.30;102280.19;5055457;28;45260;-53
2021/10/08 01:16:57;;;;;;;;;5.25;3.75;;;;;21.91;43.53;102282.84;5056016;28;45966;-55
2021/10/08 01:19:22;;;;;;;;;7.00;4.75;;;;;21.90;43.54;102270.56;5056316;28;45310;-56
2021/10/08 01:21:47;;;;;;;;;3.00;2.50;;;;;21.88;43.48;102267.09;5056134;28;45284;-54
2021/10/08 01:24:13;;;;;;;;;4.00;4.00;;;;;21.92;43.68;102281.91;5055053;28;45154;-51
2021/10/08 01:26:38;;;;;;;;;3.25;3.25;;;;;21.92;43.49;102278.44;5055910;28;45352;-54
2021/10/08 01:29:08;;;;;;;;;3.00;3.00;;;;;21.89;43.37;102268.81;5056190;28;45259;-55
2021/10/08 01:31:34;;;;;;;;;3.25;3.00;;;;;21.91;43.63;102269.63;5056292;28;45387;-53
2021/10/08 01:33:59;;;;;;;;;4.25;4.00;;;;;21.89;43.60;102263.56;5054954;28;45339;-53
2021/10/08 01:36:25;;;;;;;;;6.50;4.00;;;;;21.89;43.55;102268.81;5071339;28;47369;-55
2021/10/08 01:38:50;;;;;;;;;4.25;3.00;;;;;21.90;43.69;102272.34;5055963;28;45195;-54
2021/10/08 01:41:15;;;;;;;;;3.00;3.00;;;;;21.88;43.43;102275.03;5055878;28;45280;-54
2021/10/08 01:43:41;;;;;;;;;3.25;3.25;;;;;21.90;43.56;102275.00;5057110;28;45485;-51
2021/10/08 01:46:06;;;;;;;;;4.00;4.00;;;;;21.88;43.54;102277.66;5059505;28;45401;-54
2021/10/08 01:48:31;;;;;;;;;4.00;4.00;;;;;21.87;43.56;102270.69;5059313;28;45177;-54
2021/10/08 01:50:57;;;;;;;;;6.75;4.25;;;;;21.89;43.78;102275.91;5059346;28;45730;-56
2021/10/08 01:53:22;;;;;;;;;4.00;4.00;;;;;21.89;43.51;102275.91;5059499;28;45142;-51
2021/10/08 01:55:47;;;;;;;;;3.75;3.00;;;;;21.85;43.53;102272.53;5059077;28;46065;-53
2021/10/08 01:58:13;;;;;;;;;5.75;4.75;;;;;21.88;43.72;102274.19;5059113;28;45296;-54
2021/10/08 02:00:38;;;;;;;;;5.00;4.75;;;;;21.87;43.57;102275.09;5059352;28;45469;-54
2021/10/08 02:03:04;;;;;;;;;2.25;2.25;;;;;21.86;43.70;102274.25;5059746;28;45644;-55
2021/10/08 02:05:29;;;;;;;;;3.75;3.75;;;;;21.86;43.63;102274.25;5059121;28;46558;-54
2021/10/08 02:07:54;;;;;;;;;4.75;4.00;;;;;21.86;43.52;102271.59;5059261;28;45459;-54
2021/10/08 02:10:20;;;;;;;;;3.25;3.25;;;;;21.87;43.84;102275.97;5059217;28;45354;-53
2021/10/08 02:12:45;;;;;;;;;3.00;3.00;;;;;21.86;43.70;102276.88;5059445;28;45306;-55
2021/10/08 02:15:11;;;;;;;;;6.25;4.25;;;;;21.86;43.64;102274.25;5058819;28;46036;-55
2021/10/08 02:17:36;;;;;;;;;4.75;3.75;;;;;21.86;43.30;102268.97;5059150;28;45322;-54
2021/10/08 02:20:03;;;;;;;;;5.00;5.00;;;;;21.86;43.75;102268.09;5074663;28;45302;-54
2021/10/08 02:22:28;;;;;;;;;4.50;4.50;;;;;21.86;43.73;102273.38;5059023;28;45412;-54
2021/10/08 02:24:53;;;;;;;;;4.00;4.00;;;;;21.85;43.85;102271.66;5058656;28;45409;-54
2021/10/08 02:27:19;;;;;;;;;4.00;4.00;;;;;21.85;43.71;102272.53;5058655;28;45314;-54
2021/10/08 02:29:44;;;;;;;;;4.75;4.75;;;;;21.85;43.70;102272.53;5058837;28;45353;-55
2021/10/08 02:32:10;;;;;;;;;4.00;4.00;;;;;21.85;43.82;102269.88;5059116;28;45838;-52
2021/10/08 02:34:35;;;;;;;;;4.50;4.50;;;;;21.84;43.94;102267.28;5058535;28;46058;-54
2021/10/08 02:37:00;;;;;;;;;3.25;3.25;;;;;21.84;43.76;102265.53;5058595;28;45255;-55
2021/10/08 02:39:26;;;;;;;;;6.00;3.00;;;;;21.84;43.73;102265.53;5058708;28;45272;-54
2021/10/08 02:41:51;;;;;;;;;3.00;3.00;;;;;21.84;43.60;102270.81;5058595;28;45644;-54
2021/10/08 02:44:16;;;;;;;;;3.25;3.00;;;;;21.83;43.75;102274.34;5058394;28;45465;-54
2021/10/08 02:46:42;;;;;;;;;4.00;4.00;;;;;21.82;43.59;102277.91;5058372;28;45394;-52
2021/10/08 02:49:07;;;;;;;;;3.75;3.75;;;;;21.83;43.75;102270.88;5058780;28;45298;-53
2021/10/08 02:51:33;;;;;;;;;6.00;4.50;;;;;21.83;43.78;102269.06;5058473;28;45564;-55
2021/10/08 02:54:00;;;;;;;;;4.75;4.75;;;;;21.83;43.82;102276.16;5057826;28;45344;-55
2021/10/08 02:56:27;;;;;;;;;4.00;4.00;;;;;21.82;44.05;102277.06;5058173;28;45361;-54
2021/10/08 02:58:52;;;;;;;;;4.50;4.50;;;;;21.83;43.94;102284.06;5057137;28;45375;-52
2021/10/08 03:01:17;;;;;;;;;5.25;4.00;;;;;21.83;43.79;102278.78;5056600;28;45271;-55
2021/10/08 03:03:43;;;;;;;;;4.25;3.50;;;;;21.81;43.88;102276.19;5058040;28;46288;-53
2021/10/08 03:06:08;;;;;;;;;3.75;3.75;;;;;21.82;44.02;102274.44;5058311;28;45556;-54
2021/10/08 03:08:33;;;;;;;;;3.00;3.00;;;;;21.82;43.86;102275.28;5058113;28;45576;-54
2021/10/08 03:10:59;;;;;;;;;5.00;4.50;;;;;21.81;43.81;102278.81;5058282;28;45319;-54
2021/10/08 03:13:24;;;;;;;;;2.00;2.00;;;;;21.81;43.85;102273.56;5057793;28;46520;-55
2021/10/08 03:15:50;;;;;;;;;4.50;4.00;;;;;21.80;43.65;102269.19;5058016;28;45417;-52
2021/10/08 03:18:15;;;;;;;;;5.50;4.25;;;;;21.81;43.93;102273.56;5057963;28;45236;-53
2021/10/08 03:20:41;;;;;;;;;3.50;3.50;;;;;21.81;43.95;102273.56;5058355;28;45337;-54
2021/10/08 03:23:06;;;;;;;;;4.00;4.00;;;;;21.81;43.98;102270.06;5057966;28;45665;-54
2021/10/08 03:25:32;;;;;;;;;5.00;4.00;;;;;21.79;43.76;102278.03;5057847;28;45326;-55
2021/10/08 03:27:57;;;;;;;;;5.50;4.25;;;;;21.80;43.89;102268.34;5057963;28;45332;-54
2021/10/08 03:30:22;;;;;;;;;4.00;4.00;;;;;21.79;44.13;102272.75;5057909;28;45884;-53
2021/10/08 03:32:48;;;;;;;;;5.00;5.00;;;;;21.80;43.87;102282.38;5057504;28;45338;-52
2021/10/08 03:35:13;;;;;;;;;3.25;3.00;;;;;21.80;43.77;102278.91;5057632;28;45434;-53
2021/10/08 03:40:04;;;;;;;;;6.00;6.00;;;;;21.78;44.03;102281.56;5057690;28;45603;-52
2021/10/08 03:42:30;;;;;;;;;5.00;5.00;;;;;21.79;44.04;102272.75;5057322;28;46491;-54
2021/10/08 03:45:03;;;;;;;;;3.00;3.00;;;;;21.79;44.04;102275.38;5057447;28;45263;-54
2021/10/08 03:47:40;;;;;;;;;3.00;3.00;;;;;21.78;43.74;102281.56;5057592;28;45271;-54
2021/10/08 03:50:08;;;;;;;;;3.50;3.50;;;;;21.79;44.02;102283.28;5057645;28;45465;-55
2021/10/08 03:52:34;;;;;;;;;4.75;4.75;;;;;21.78;43.94;102276.28;5057317;28;45738;-54
2021/10/08 03:54:59;;;;;;;;;4.25;4.25;;;;;21.78;44.08;102277.16;5057328;28;45543;-55
2021/10/08 03:57:24;;;;;;;;;4.75;4.00;;;;;21.78;43.89;102278.94;5057382;28;45309;-54
2021/10/08 03:59:50;;;;;;;;;4.25;4.00;;;;;21.78;43.87;102278.94;5057424;28;45651;-55
2021/10/08 04:02:15;;;;;;;;;3.50;3.25;;;;;21.77;44.07;102279.88;5056907;28;46207;-53
2021/10/08 04:04:40;;;;;;;;;4.00;4.00;;;;;21.76;44.02;102279.00;5056407;28;45255;-55
2021/10/08 04:07:05;;;;;;;;;4.00;3.75;;;;;21.74;44.00;102275.56;5056444;28;45340;-55
2021/10/08 04:09:31;;;;;;;;;4.00;4.00;;;;;21.75;44.09;102276.44;5057408;28;45229;-55
2021/10/08 04:11:56;;;;;;;;;4.00;4.00;;;;;21.77;44.09;102287.81;5056985;28;45314;-54
2021/10/08 04:14:22;;;;;;;;;4.75;4.75;;;;;21.78;44.21;102292.13;5056938;28;45200;-54
2021/10/08 04:16:50;;;;;;;;;5.75;4.00;;;;;21.76;44.04;102283.44;5057129;28;45236;-53
2021/10/08 04:19:15;;;;;;;;;4.50;3.75;;;;;21.75;43.98;102289.63;5057108;28;45449;-53
2021/10/08 04:21:41;;;;;;;;;6.25;5.00;;;;;21.74;43.91;102285.28;5057125;28;46153;-53
2021/10/08 04:24:06;;;;;;;;;6.25;6.25;;;;;21.75;43.99;102292.28;5057023;28;45484;-52
2021/10/08 04:26:31;;;;;;;;;4.00;4.00;;;;;21.74;44.24;102290.53;5056805;28;45712;-50
2021/10/08 04:28:59;;;;;;;;;6.00;5.25;;;;;21.75;44.14;102289.63;5056905;27;45347;-55
2021/10/08 04:31:24;;;;;;;;;5.00;3.00;;;;;21.74;44.24;102287.91;5056663;28;47175;-56
2021/10/08 04:33:49;;;;;;;;;6.00;4.25;;;;;21.74;44.25;102290.53;5056707;28;45364;-53
2021/10/08 04:36:15;;;;;;;;;4.75;4.00;;;;;21.73;43.92;102289.66;5057203;28;45299;-54
2021/10/08 04:38:40;;;;;;;;;5.25;5.25;;;;;21.73;43.95;102289.66;5056962;28;45617;-53
2021/10/08 04:41:05;;;;;;;;;5.00;5.00;;;;;21.74;44.18;102286.13;5056480;28;46195;-50
2021/10/08 04:43:31;;;;;;;;;5.00;4.00;;;;;21.74;44.10;102288.75;5056753;28;45373;-55
2021/10/08 04:45:56;;;;;;;;;3.50;3.50;;;;;21.73;43.98;102283.53;5056696;28;45445;-55
2021/10/08 04:48:22;;;;;;;;;5.00;5.00;;;;;21.72;44.12;102287.94;5056694;28;45158;-56
2021/10/08 04:50:47;;;;;;;;;5.50;4.00;;;;;21.74;44.24;102290.53;5056487;28;45613;-55
2021/10/08 04:53:18;;;;;;;;;4.50;4.00;;;;;21.73;44.08;102289.66;5056714;28;45260;-55
2021/10/08 04:55:44;;;;;;;;;3.50;3.50;;;;;21.70;43.86;102283.66;5056849;28;45317;-53
2021/10/08 04:58:10;;;;;;;;;5.00;4.50;;;;;21.72;44.40;102293.22;5056830;28;45533;-53
2021/10/08 05:00:37;;;;;;;;;2.75;2.75;;;;;21.73;44.29;102292.31;5056054;28;46163;-54
2021/10/08 05:03:07;;;;;;;;;6.00;4.00;;;;;21.71;44.01;102291.53;5056339;28;45805;-53
2021/10/08 05:05:32;;;;;;;;;4.50;4.00;;;;;21.72;44.12;102287.09;5056355;28;45515;-56
2021/10/08 05:07:58;;;;;;;;;4.75;4.75;;;;;21.72;44.05;102292.38;5056659;28;45338;-55
2021/10/08 05:10:23;;;;;;;;;3.50;3.50;;;;;21.71;44.15;102285.38;5056202;28;45517;-53
2021/10/08 05:12:48;;;;;;;;;5.00;5.00;;;;;21.71;44.04;102294.16;5056097;28;45414;-53
2021/10/08 05:15:14;;;;;;;;;5.50;3.75;;;;;21.70;43.91;102288.94;5056622;28;45331;-56
2021/10/08 05:17:39;;;;;;;;;4.00;4.00;;;;;21.71;44.08;102295.94;5057423;28;45506;-55
2021/10/08 05:20:05;;;;;;;;;6.00;5.00;;;;;21.71;43.97;102294.16;5059193;28;56047;-55
2021/10/08 05:22:30;;;;;;;;;4.50;4.50;;;;;21.71;44.25;102295.94;5059746;28;45877;-55
2021/10/08 05:24:56;;;;;;;;;4.75;4.75;;;;;21.70;44.13;102292.44;5059404;28;50569;-56
2021/10/08 05:27:21;;;;;;;;;4.00;4.00;;;;;21.68;44.39;102296.03;5059956;28;45589;-54
2021/10/08 05:29:46;;;;;;;;;5.25;5.25;;;;;21.71;44.20;102303.84;5059891;28;46689;-56
2021/10/08 05:32:12;;;;;;;;;5.00;5.00;;;;;21.69;44.19;102303.91;5059468;28;45256;-56
2021/10/08 05:34:37;;;;;;;;;4.25;4.25;;;;;21.70;43.98;102291.56;5059682;28;45351;-54
2021/10/08 05:37:04;;;;;;;;;4.00;4.00;;;;;21.70;44.10;102297.72;5059777;28;45346;-51
2021/10/08 05:39:29;;;;;;;;;5.00;3.00;;;;;21.70;44.25;102296.84;5059153;28;47387;-53
2021/10/08 05:41:55;;;;;;;;;4.25;4.25;;;;;21.70;44.11;102304.75;5059263;28;45281;-55
2021/10/08 05:44:20;;;;;;;;;5.50;5.50;;;;;21.69;44.29;102306.56;5059428;28;45300;-53
2021/10/08 05:46:46;;;;;;;;;5.25;5.25;;;;;21.70;44.26;102299.47;5059980;28;45641;-53
2021/10/08 05:49:11;;;;;;;;;2.00;2.00;;;;;21.69;43.89;102297.75;5059114;28;45695;-55
2021/10/08 05:51:36;;;;;;;;;6.50;4.50;;;;;21.68;44.63;102298.66;5059235;28;45418;-53
2021/10/08 05:54:02;;;;;;;;;4.50;4.50;;;;;21.69;44.07;102297.75;5059175;28;45343;-53
2021/10/08 05:56:27;;;;;;;;;4.25;4.25;;;;;21.68;44.16;102302.19;5059422;28;45545;-55
2021/10/08 05:58:53;;;;;;;;;5.25;5.25;;;;;21.67;44.24;102304.88;5057539;28;46470;-53
2021/10/08 06:01:18;;;;;;;;;6.00;5.75;;;;;21.67;44.39;102304.88;5057654;28;45378;-55
2021/10/08 06:03:43;;;;;;;;;5.00;5.00;;;;;21.67;44.30;102304.88;5059219;28;45481;-54
2021/10/08 06:06:09;;;;;;;;;5.50;4.00;;;;;21.68;44.25;102306.59;5059282;28;45359;-56
2021/10/08 06:08:34;;;;;;;;;5.00;4.75;;;;;21.69;44.45;102308.31;5058874;28;46408;-53
2021/10/08 06:10:59;;;;;;;;;4.00;4.00;;;;;21.69;44.12;102318.88;5059040;28;45290;-56
2021/10/08 06:13:25;;;;;;;;;5.25;5.25;;;;;21.68;43.94;102314.50;5059089;28;45888;-51
2021/10/08 06:15:51;;;;;;;;;5.00;5.00;;;;;21.68;44.05;102319.78;5059106;28;45617;-56
2021/10/08 06:18:16;;;;;;;;;7.50;7.50;;;;;21.67;43.76;102316.28;5058997;28;46286;-51
2021/10/08 06:20:42;;;;;;;;;9.25;6.25;;;;;21.67;43.95;102318.06;5058631;28;45257;-51
2021/10/08 06:23:07;;;;;;;;;8.50;7.25;;;;;21.66;43.88;102324.28;5058724;28;45289;-54
2021/10/08 06:25:33;;;;;;;;;7.25;7.25;;;;;21.63;43.60;102319.94;5074613;28;45328;-54
2021/10/08 06:27:58;;;;;;;;;9.75;8.00;;;;;21.62;43.58;102328.78;5058498;28;46277;-54
2021/10/08 06:30:24;;;;;;;;;9.75;9.75;;;;;21.60;43.13;102328.00;5057931;28;45271;-53
2021/10/08 06:32:50;;;;;;;;;8.25;8.25;;;;;21.58;43.13;102329.78;5057828;28;45319;-55
2021/10/08 06:35:16;;;;;;;;;10.00;8.25;;;;;21.56;43.46;102335.09;5058858;28;45481;-53
2021/10/08 06:37:42;;;;;;;;;9.25;8.00;;;;;21.54;43.56;102330.81;5058540;28;45472;-55
2021/10/08 06:40:08;;;;;;;;;9.00;9.00;;;;;21.53;43.36;102334.38;5058413;28;45742;-54
2021/10/08 06:42:34;;;;;;;;;11.50;9.25;;;;;21.50;43.06;102337.13;5058364;28;45292;-54
2021/10/08 06:44:59;;;;;;;;;11.25;9.00;;;;;21.49;42.94;102338.91;5058675;28;45413;-53
2021/10/08 06:47:25;;;;;;;;;11.50;10.00;;;;;21.48;42.98;102342.44;5058244;28;45604;-52
2021/10/08 06:49:51;;;;;;;;;12.75;7.50;;;;;21.46;43.49;102341.63;5058585;28;45213;-52
2021/10/08 06:52:16;;;;;;;;;10.25;8.00;;;;;21.44;43.09;102335.56;5058235;28;45216;-54
2021/10/08 06:54:43;;;;;;;;;11.00;9.00;;;;;21.43;43.02;102349.69;5058557;28;46010;-52
2021/10/08 06:57:08;;;;;;;;;11.50;10.00;;;;;21.42;42.97;102343.53;5058265;28;46287;-54
2021/10/08 06:59:34;;;;;;;;;13.00;11.25;;;;;21.41;42.78;102336.53;5057942;28;45460;-53
2021/10/08 07:01:59;;;;;;;;;10.25;9.00;;;;;21.41;43.20;102348.88;5058180;28;45320;-53
2021/10/08 07:04:25;;;;;;;;;12.75;11.00;;;;;21.40;42.83;102347.97;5058332;28;45635;-54
2021/10/08 07:06:51;;;;;;;;;11.00;11.00;;;;;21.39;42.93;102348.06;5058202;28;45824;-58
2021/10/08 07:09:16;;;;;;;;;7.50;7.50;;;;;21.37;42.91;102348.13;5057870;28;45311;-54
2021/10/08 07:11:41;;;;;;;;;10.50;10.50;;;;;21.37;42.87;102347.25;5058057;28;45439;-54
2021/10/08 07:14:07;;;;;;;;;14.50;9.25;;;;;21.37;43.12;102355.16;5058180;28;45390;-54
2021/10/08 07:16:32;;;;;;;;;11.00;10.00;;;;;21.35;42.79;102357.84;5057666;28;46201;-54
2021/10/08 07:19:04;;;;;;;;;12.50;9.00;;;;;21.34;42.62;102348.22;5057840;28;45344;-54
2021/10/08 07:21:30;;;;;;;;;11.50;10.75;;;;;21.34;42.59;102361.41;5057905;28;45332;-53
2021/10/08 07:23:56;;;;;;;;;14.75;13.00;;;;;21.34;42.55;102360.53;5058032;28;45466;-53
2021/10/08 07:26:22;;;;;;;;;10.50;10.00;;;;;21.33;42.74;102364.09;5057923;28;45738;-53
2021/10/08 07:28:48;;;;;;;;;14.50;13.25;;;;;21.31;42.93;102358.84;5056407;28;45869;-52
2021/10/08 07:31:13;;;;;;;;;14.00;12.75;;;;;21.30;42.64;102360.66;5057724;28;45338;-55
2021/10/08 07:33:39;;;;;;;;;11.25;10.25;;;;;21.31;42.75;102366.78;5057849;27;45389;-51
2021/10/08 07:36:04;;;;;;;;;12.50;11.00;;;;;21.29;42.78;102366.84;5057591;28;45474;-52
2021/10/08 07:38:32;;;;;;;;;12.25;12.25;;;;;21.26;42.70;102359.03;5057538;28;45405;-52
2021/10/08 07:40:58;;;;;;;;;9.50;9.50;;;;;21.28;42.65;102362.47;5056649;28;45235;-54
2021/10/08 07:43:23;;;;;;;;;14.75;14.50;;;;;21.28;42.74;102366.88;5057970;28;45289;-51
2021/10/08 07:45:49;;;;;;;;;16.25;12.50;;;;;21.26;42.65;102364.28;5057308;28;46753;-48
2021/10/08 07:48:14;;;;;;;;;15.25;15.25;;;;;21.26;42.52;102364.28;5057289;28;45410;-50
2021/10/08 07:50:39;;;;;;;;;16.25;14.25;;;;;21.24;42.63;102360.00;5057422;28;45234;-51
2021/10/08 07:53:05;;;;;;;;;17.25;13.25;;;;;21.25;42.79;102365.19;5057692;28;45355;-51
2021/10/08 07:55:31;;;;;;;;;16.00;12.50;;;;;21.24;42.45;102360.84;5057340;28;45799;-53
2021/10/08 07:57:57;;;;;;;;;13.75;12.50;;;;;21.21;42.62;102355.69;5057112;28;45911;-48
2021/10/08 08:00:22;;;;;;;;;13.50;13.00;;;;;21.24;42.64;102365.28;5073267;27;45276;-51
2021/10/08 08:02:57;;;;;;;;;13.25;11.75;;;;;21.23;42.73;102356.47;5049846;28;45321;-53
2021/10/08 08:05:22;;;;;;;;;13.25;13.00;;;;;21.23;42.52;102356.47;5033314;28;45310;-54
2021/10/08 08:07:48;;;;;;;;;13.50;12.00;;;;;21.23;42.64;102353.84;5033012;28;45359;-52
2021/10/08 08:10:14;;;;;;;;;15.25;13.25;;;;;21.22;42.51;102351.28;5033188;28;45463;-52
2021/10/08 08:12:40;;;;;;;;;12.50;12.50;;;;;21.23;42.77;102353.84;5033004;28;45329;-53
2021/10/08 08:15:06;;;;;;;;;11.00;10.50;;;;;21.24;42.40;102362.63;5032838;28;45253;-53
2021/10/08 08:17:31;;;;;;;;;13.00;13.00;;;;;21.23;42.27;102353.00;5033007;28;45496;-52
2021/10/08 08:19:57;;;;;;;;;10.75;10.75;;;;;21.22;42.42;102349.47;5033183;28;45320;-52
2021/10/08 08:22:22;;;;;;;;;14.75;14.00;;;;;21.23;42.12;102353.84;5032831;28;45962;-52
2021/10/08 08:24:47;;;;;;;;;14.50;13.25;;;;;21.22;42.21;102365.31;5032899;28;45490;-50
2021/10/08 08:27:13;;;;;;;;;13.00;11.00;;;;;21.21;42.34;102360.97;5032843;28;45393;-51
2021/10/08 08:29:39;;;;;;;;;12.00;12.00;;;;;21.21;41.95;102360.97;5032862;28;45614;-53
2021/10/08 08:32:04;;;;;;;;;12.75;12.75;;;;;21.21;42.43;102360.97;5032589;28;45422;-50
2021/10/08 08:34:30;;;;;;;;;13.00;11.00;;;;;21.23;42.38;102358.28;5032566;28;45407;-53
2021/10/08 08:36:55;;;;;;;;;14.25;12.00;;;;;21.24;42.37;102362.63;5033058;28;45711;-53
2021/10/08 08:39:21;;;;;;;;;13.75;13.75;;;;;21.23;42.12;102353.00;5032835;28;45494;-53
2021/10/08 08:41:48;;;;;;;;;12.25;11.25;;;;;21.22;42.31;102361.81;5030948;28;47197;-54
2021/10/08 08:44:13;;;;;;;;;14.00;12.25;;;;;21.21;42.02;102360.09;5032532;28;45751;-53
2021/10/08 08:46:39;;;;;;;;;17.50;12.25;;;;;21.23;41.92;102353.00;5032547;28;45287;-53
2021/10/08 08:49:06;;;;;;;;;9.50;9.50;;;;;21.22;42.55;102351.28;5032603;28;45652;-55
2021/10/08 08:51:32;;;;;;;;;16.50;13.50;;;;;21.22;42.35;102361.81;5032243;28;46231;-55
2021/10/08 08:54:01;;;;;;;;;16.75;15.25;;;;;21.22;42.29;102352.13;5032425;28;45281;-54
2021/10/08 08:56:26;;;;;;;;;10.50;10.50;;;;;21.23;42.57;102353.84;5031343;28;45391;-55
2021/10/08 08:59:04;;;;;;;;;12.00;11.25;;;;;21.25;42.37;102354.66;5032472;28;45518;-55
2021/10/08 09:01:30;;;;;;;;;11.25;11.00;;;;;21.25;42.24;102352.03;5040202;28;46395;-57
2021/10/08 09:04:05;;;;;;;;;14.25;12.50;;;;;21.27;42.25;102349.34;5052643;28;45252;-54
2021/10/08 09:06:39;;;;;;;;;13.75;12.50;;;;;21.27;42.24;102342.28;5052053;28;45387;-54
2021/10/08 09:09:18;;;;;;;;;10.25;9.00;;;;;21.26;42.16;102343.19;5052603;28;45289;-54
2021/10/08 09:11:45;;;;;;;;;14.00;11.50;;;;;21.31;42.08;102343.03;5052200;28;47372;-55
2021/10/08 09:14:24;;;;;;;;;13.75;10.25;;;;;21.33;41.87;102350.91;5039148;28;45956;-57
2021/10/08 09:17:10;;;;;;;;;13.25;11.25;;;;;21.34;42.39;102349.97;5038817;28;45332;-55
2021/10/08 09:19:53;;;;;;;;;13.75;12.25;;;;;21.34;42.21;102342.06;5038828;28;45211;-55
2021/10/08 09:22:49;;;;;;;;;15.25;12.00;;;;;21.35;42.08;102347.31;5038347;28;46382;-56
2021/10/08 09:25:15;;;;;;;;;12.00;11.75;;;;;21.36;41.98;102345.50;5038535;28;45279;-56
2021/10/08 09:27:47;;;;;;;;;11.00;11.00;;;;;21.32;42.02;102336.84;5020674;28;45305;-56
2021/10/08 09:30:14;;;;;;;;;12.25;11.25;;;;;21.37;41.64;102340.19;5038662;28;45428;-54
2021/10/08 09:32:47;;;;;;;;;14.75;9.00;;;;;21.37;41.48;102342.84;5038258;28;46336;-55
2021/10/08 09:35:16;;;;;;;;;11.75;10.50;;;;;21.37;41.62;102339.31;5038475;28;45927;-54
2021/10/08 09:37:43;;;;;;;;;10.50;9.00;;;;;21.37;41.51;102341.97;5038541;28;45343;-55
2021/10/08 09:40:42;;;;;;;;;12.75;12.75;;;;;21.37;41.68;102339.31;5038667;28;45467;-53
2021/10/08 09:43:11;;;;;;;;;13.00;9.75;;;;;21.37;41.54;102334.06;5038227;28;45555;-54
2021/10/08 09:45:39;;;;;;;;;10.00;9.00;;;;;21.38;41.99;102335.78;5038213;28;45782;-53
2021/10/08 09:48:06;;;;;;;;;14.25;10.50;;;;;21.38;41.46;102330.50;5020364;28;45264;-55
2021/10/08 09:50:32;;;;;;;;;11.00;11.00;;;;;21.37;41.84;102318.22;5038513;28;45602;-54
2021/10/08 09:53:15;;;;;;;;;13.00;9.50;;;;;21.37;41.65;102324.38;5038278;28;46163;-54
2021/10/08 09:55:42;;;;;;;;;10.50;9.75;;;;;21.37;42.00;102312.94;5037996;28;45894;-55
2021/10/08 09:58:09;;;;;;;;;9.50;9.50;;;;;21.38;41.78;102319.94;5038063;28;45455;-56
2021/10/08 10:00:37;;;;;;;;;13.00;11.00;;;;;21.38;41.60;102319.94;5038069;28;45405;-56
2021/10/08 10:03:05;;;;;;;;;10.00;8.00;;;;;21.38;41.92;102309.41;5037806;28;46270;-54
2021/10/08 10:05:31;;;;;;;;;13.00;11.75;;;;;21.37;41.61;102308.56;5038180;28;45998;-55
2021/10/08 10:07:57;;;;;;;;;10.00;8.00;;;;;21.38;41.62;102307.63;5038267;28;45389;-55
2021/10/08 10:10:23;;;;;;;;;10.25;8.75;;;;;21.38;41.34;102305.00;5038154;28;45422;-53
2021/10/08 10:12:50;;;;;;;;;6.25;6.25;;;;;21.37;41.14;102297.13;5037826;28;46424;-55
2021/10/08 10:15:18;;;;;;;;;7.25;7.25;;;;;21.38;40.86;102298.84;5037785;28;45415;-54
2021/10/08 10:17:44;;;;;;;;;7.00;7.00;;;;;21.38;41.08;102296.22;5037938;28;45444;-55
2021/10/08 10:20:11;;;;;;;;;11.00;7.25;;;;;21.38;41.27;102298.84;5038001;28;45352;-56
2021/10/08 10:22:37;;;;;;;;;8.25;7.75;;;;;21.37;40.93;102289.22;5037524;28;45824;-55
2021/10/08 10:25:04;;;;;;;;;8.25;7.25;;;;;21.39;41.13;102287.38;5036394;28;45769;-55
2021/10/08 10:27:30;;;;;;;;;7.25;6.75;;;;;21.39;41.14;102290.88;5037939;28;45329;-53
2021/10/08 10:29:57;;;;;;;;;9.75;7.00;;;;;21.41;41.10;102288.19;5037921;28;45226;-55
2021/10/08 10:32:23;;;;;;;;;8.25;7.00;;;;;21.40;41.02;102289.97;5037388;28;45398;-56
2021/10/08 10:34:49;;;;;;;;;6.25;5.00;;;;;21.42;40.91;102287.28;5037452;28;45346;-56
2021/10/08 10:37:36;;;;;;;;;5.00;4.50;;;;;21.43;41.15;102296.91;5037545;28;45375;-55
2021/10/08 10:40:19;;;;;;;;;6.00;6.00;;;;;21.43;40.35;102292.50;5037711;28;45430;-56
2021/10/08 10:42:44;;;;;;;;;7.50;5.25;;;;;21.43;40.43;102287.22;5037022;28;45931;-55
2021/10/08 10:45:16;;;;;;;;;7.75;6.00;;;;;21.43;40.85;102291.66;5037367;28;45286;-55
2021/10/08 10:47:44;;;;;;;;;8.25;7.00;;;;;21.43;40.84;102294.28;5037378;28;45242;-58
2021/10/08 10:50:18;;;;;;;;;6.25;6.00;;;;;21.43;40.29;102281.09;5037478;28;45366;-56
2021/10/08 10:53:04;;;;;;;;;6.00;6.00;;;;;21.45;40.20;102293.31;5036845;28;45817;-55
2021/10/08 10:55:34;;;;;;;;;4.50;4.00;;;;;21.45;40.53;102287.16;5037594;28;45736;-55
2021/10/08 10:58:02;;;;;;;;;5.00;4.00;;;;;21.45;40.63;102284.50;5019698;28;45507;-56
2021/10/08 11:00:41;;;;;;;;;4.50;4.00;;;;;21.45;40.66;102284.50;5037369;28;45416;-55
2021/10/08 11:03:18;;;;;;;;;6.50;4.75;;;;;21.46;40.50;102280.97;5036848;28;47264;-55
2021/10/08 11:06:06;;;;;;;;;5.00;5.00;;;;;21.46;40.93;102281.84;5037151;28;45266;-53
2021/10/08 11:08:32;;;;;;;;;5.00;5.00;;;;;21.47;40.62;102280.03;5037296;28;45349;-54
2021/10/08 11:11:00;;;;;;;;;8.25;4.75;;;;;21.49;40.85;102280.84;5037195;28;45521;-53
2021/10/08 11:13:38;;;;;;;;;4.75;4.75;;;;;21.50;40.45;102277.31;5018887;28;48065;-56
2021/10/08 11:16:06;;;;;;;;;6.00;6.00;;;;;21.51;40.51;102276.41;5037188;28;45618;-54
2021/10/08 11:18:47;;;;;;;;;4.00;4.00;;;;;21.50;40.55;102279.94;5037116;28;45373;-57
2021/10/08 11:21:28;;;;;;;;;5.00;4.25;;;;;21.52;40.84;102272.84;5036911;28;45348;-55
2021/10/08 11:24:11;;;;;;;;;7.25;7.25;;;;;21.49;40.96;102253.63;5036713;28;46336;-56